sensor_id;sensor_type;location;lat;lon;timestamp;pressure;altitude;pressure_sealevel;temperature;humidity
59337;BME280;45115;52.002;4.686;2022-12-07T00:00:21;101980.06;;;3.15;100.00
59337;BME280;45115;52.002;4.686;2022-12-07T00:02:50;101951.72;;;3.03;100.00
59337;BME280;45115;52.002;4.686;2022-12-07T00:05:17;101968.63;;;3.23;100.00
59337;BME280;45115;52.002;4.686;2022-12-07T00:07:47;101945.13;;;3.08;100.00
59337;BME280;45115;52.002;4.686;2022-12-07T00:10:14;101951.72;;;3.03;100.00
59337;BME280;45115;52.002;4.686;2022-12-07T00:12:41;101952.16;;;3.07;100.00
59337;BME280;45115;52.002;4.686;2022-12-07T00:15:08;101949.53;;;3.07;100.00
59337;BME280;45115;52.002;4.686;2022-12-07T00:17:37;101961.41;;;3.25;100.00
59337;BME280;45115;52.002;4.686;2022-12-07T00:20:05;101964.03;;;3.25;100.00
59337;BME280;45115;52.002;4.686;2022-12-07T00:22:32;101950.13;;;3.31;100.00
59337;BME280;45115;52.002;4.686;2022-12-07T00:25:00;101942.63;;;3.28;100.00
59337;BME280;45115;52.002;4.686;2022-12-07T00:27:27;101928.19;;;3.10;100.00
59337;BME280;45115;52.002;4.686;2022-12-07T00:29:54;101931.34;;;2.99;100.00
59337;BME280;45115;52.002;4.686;2022-12-07T00:32:21;101931.69;;;2.96;100.00
59337;BME280;45115;52.002;4.686;2022-12-07T00:34:48;101931.47;;;2.90;100.00
59337;BME280;45115;52.002;4.686;2022-12-07T00:37:14;101927.16;;;2.83;100.00
59337;BME280;45115;52.002;4.686;2022-12-07T00:39:41;101927.97;;;2.61;100.00
59337;BME280;45115;52.002;4.686;2022-12-07T00:42:09;101925.28;;;2.33;100.00
59337;BME280;45115;52.002;4.686;2022-12-07T00:44:36;101924.94;;;2.21;100.00
59337;BME280;45115;52.002;4.686;2022-12-07T00:47:03;101925.63;;;2.30;100.00
59337;BME280;45115;52.002;4.686;2022-12-07T00:49:29;101918.28;;;2.40;100.00
59337;BME280;45115;52.002;4.686;2022-12-07T00:51:56;101933.22;;;2.61;100.00
59337;BME280;45115;52.002;4.686;2022-12-07T00:54:23;101937.97;;;2.73;100.00
59337;BME280;45115;52.002;4.686;2022-12-07T00:56:49;101928.59;;;2.85;100.00
59337;BME280;45115;52.002;4.686;2022-12-07T00:59:17;101916.41;;;2.99;100.00
59337;BME280;45115;52.002;4.686;2022-12-07T01:01:44;101922.78;;;3.12;100.00
59337;BME280;45115;52.002;4.686;2022-12-07T01:04:11;101929.09;;;3.24;100.00
59337;BME280;45115;52.002;4.686;2022-12-07T01:06:38;101934.41;;;3.31;100.00
59337;BME280;45115;52.002;4.686;2022-12-07T01:09:05;101943.44;;;3.57;100.00
59337;BME280;45115;52.002;4.686;2022-12-07T01:11:32;101944.94;;;3.73;100.00
59337;BME280;45115;52.002;4.686;2022-12-07T01:13:59;101941.38;;;3.88;100.00
59337;BME280;45115;52.002;4.686;2022-12-07T01:16:29;101939.38;;;3.90;100.00
59337;BME280;45115;52.002;4.686;2022-12-07T01:18:57;101941.63;;;3.93;100.00
59337;BME280;45115;52.002;4.686;2022-12-07T01:21:26;101934.47;;;3.80;100.00
59337;BME280;45115;52.002;4.686;2022-12-07T01:23:54;101935.88;;;3.76;100.00
59337;BME280;45115;52.002;4.686;2022-12-07T01:26:22;101938.44;;;3.62;100.00
59337;BME280;45115;52.002;4.686;2022-12-07T01:28:50;101937.97;;;3.52;100.00
59337;BME280;45115;52.002;4.686;2022-12-07T01:31:21;101922.78;;;3.40;100.00
59337;BME280;45115;52.002;4.686;2022-12-07T01:33:52;101932.31;;;3.55;100.00
59337;BME280;45115;52.002;4.686;2022-12-07T01:36:20;101937.81;;;3.60;100.00
59337;BME280;45115;52.002;4.686;2022-12-07T01:38:49;101936.47;;;3.71;100.00
59337;BME280;45115;52.002;4.686;2022-12-07T01:41:17;101942.22;;;3.88;100.00
59337;BME280;45115;52.002;4.686;2022-12-07T01:44:07;101939.91;;;3.78;100.00
59337;BME280;45115;52.002;4.686;2022-12-07T01:46:34;101936.03;;;3.67;100.00
59337;BME280;45115;52.002;4.686;2022-12-07T01:49:03;101927.06;;;3.48;100.00
59337;BME280;45115;52.002;4.686;2022-12-07T01:51:32;101931.78;;;3.31;100.00
59337;BME280;45115;52.002;4.686;2022-12-07T01:54:01;101927.56;;;3.08;100.00
59337;BME280;45115;52.002;4.686;2022-12-07T01:56:29;101931.09;;;2.94;100.00
59337;BME280;45115;52.002;4.686;2022-12-07T01:58:56;101929.47;;;2.71;100.00
59337;BME280;45115;52.002;4.686;2022-12-07T02:01:25;101927.91;;;2.55;100.00
59337;BME280;45115;52.002;4.686;2022-12-07T02:03:52;101929.72;;;2.54;100.00
59337;BME280;45115;52.002;4.686;2022-12-07T02:06:22;101928.78;;;2.62;100.00
59337;BME280;45115;52.002;4.686;2022-12-07T02:08:51;101940.44;;;2.81;100.00
59337;BME280;45115;52.002;4.686;2022-12-07T02:11:19;101922.38;;;3.43;100.00
59337;BME280;45115;52.002;4.686;2022-12-07T02:13:46;101926.88;;;3.56;100.00
59337;BME280;45115;52.002;4.686;2022-12-07T02:16:24;101916.38;;;3.56;100.00
59337;BME280;45115;52.002;4.686;2022-12-07T02:19:02;101902.56;;;3.41;100.00
59337;BME280;45115;52.002;4.686;2022-12-07T02:21:40;101915.84;;;3.32;100.00
59337;BME280;45115;52.002;4.686;2022-12-07T02:24:21;101920.56;;;3.44;100.00
59337;BME280;45115;52.002;4.686;2022-12-07T02:27:16;101911.22;;;3.35;100.00
59337;BME280;45115;52.002;4.686;2022-12-07T02:29:55;101916.75;;;3.18;100.00
59337;BME280;45115;52.002;4.686;2022-12-07T02:32:27;101915.03;;;3.03;100.00
59337;BME280;45115;52.002;4.686;2022-12-07T02:35:00;101921.34;;;3.09;100.00
59337;BME280;45115;52.002;4.686;2022-12-07T02:37:35;101912.84;;;3.07;100.00
59337;BME280;45115;52.002;4.686;2022-12-07T02:40:08;101902.25;;;2.94;100.00
59337;BME280;45115;52.002;4.686;2022-12-07T02:42:41;101906.06;;;2.91;100.00
59337;BME280;45115;52.002;4.686;2022-12-07T02:45:15;101908.88;;;2.89;100.00
59337;BME280;45115;52.002;4.686;2022-12-07T02:47:45;101907.94;;;2.97;100.00
59337;BME280;45115;52.002;4.686;2022-12-07T02:50:13;101904.00;;;3.15;100.00
59337;BME280;45115;52.002;4.686;2022-12-07T02:52:40;101916.22;;;3.29;100.00
59337;BME280;45115;52.002;4.686;2022-12-07T02:55:08;101924.94;;;3.37;100.00
59337;BME280;45115;52.002;4.686;2022-12-07T02:57:54;101913.66;;;3.36;100.00
59337;BME280;45115;52.002;4.686;2022-12-07T03:00:23;101908.16;;;3.31;100.00
59337;BME280;45115;52.002;4.686;2022-12-07T03:02:53;101925.72;;;3.30;100.00
59337;BME280;45115;52.002;4.686;2022-12-07T03:05:41;101913.00;;;3.27;100.00
59337;BME280;45115;52.002;4.686;2022-12-07T03:08:18;101908.88;;;3.18;100.00
59337;BME280;45115;52.002;4.686;2022-12-07T03:10:54;101911.69;;;3.16;100.00
59337;BME280;45115;52.002;4.686;2022-12-07T03:13:28;101904.69;;;2.95;100.00
59337;BME280;45115;52.002;4.686;2022-12-07T03:15:59;101903.91;;;2.73;100.00
59337;BME280;45115;52.002;4.686;2022-12-07T03:18:31;101909.44;;;2.63;100.00
59337;BME280;45115;52.002;4.686;2022-12-07T03:21:10;101905.13;;;2.55;100.00
59337;BME280;45115;52.002;4.686;2022-12-07T03:23:40;101896.41;;;2.48;100.00
59337;BME280;45115;52.002;4.686;2022-12-07T03:26:10;101905.25;;;2.47;100.00
59337;BME280;45115;52.002;4.686;2022-12-07T03:28:42;101901.53;;;2.56;100.00
59337;BME280;45115;52.002;4.686;2022-12-07T03:31:17;101907.56;;;2.57;100.00
59337;BME280;45115;52.002;4.686;2022-12-07T03:33:49;101903.75;;;2.59;100.00
59337;BME280;45115;52.002;4.686;2022-12-07T03:36:20;101899.34;;;2.82;100.00
59337;BME280;45115;52.002;4.686;2022-12-07T03:38:52;101918.66;;;3.02;100.00
59337;BME280;45115;52.002;4.686;2022-12-07T03:41:23;101900.84;;;3.19;100.00
59337;BME280;45115;52.002;4.686;2022-12-07T03:43:50;101906.75;;;3.28;100.00
59337;BME280;45115;52.002;4.686;2022-12-07T03:46:21;101902.88;;;3.24;100.00
59337;BME280;45115;52.002;4.686;2022-12-07T03:48:57;101897.22;;;3.21;100.00
59337;BME280;45115;52.002;4.686;2022-12-07T03:51:32;101892.88;;;3.06;100.00
59337;BME280;45115;52.002;4.686;2022-12-07T03:54:09;101893.56;;;2.93;100.00
59337;BME280;45115;52.002;4.686;2022-12-07T03:56:37;101896.13;;;2.86;100.00
59337;BME280;45115;52.002;4.686;2022-12-07T03:59:06;101875.00;;;2.66;100.00
59337;BME280;45115;52.002;4.686;2022-12-07T04:01:35;101886.91;;;2.69;100.00
59337;BME280;45115;52.002;4.686;2022-12-07T04:04:02;101885.31;;;2.68;100.00
59337;BME280;45115;52.002;4.686;2022-12-07T04:06:29;101874.34;;;2.57;100.00
59337;BME280;45115;52.002;4.686;2022-12-07T04:08:55;101873.91;;;2.54;100.00
59337;BME280;45115;52.002;4.686;2022-12-07T04:11:22;101877.25;;;2.47;100.00
59337;BME280;45115;52.002;4.686;2022-12-07T04:13:49;101883.66;;;2.45;100.00
59337;BME280;45115;52.002;4.686;2022-12-07T04:16:34;101877.06;;;2.27;100.00
59337;BME280;45115;52.002;4.686;2022-12-07T04:19:01;101875.84;;;2.08;100.00
59337;BME280;45115;52.002;4.686;2022-12-07T04:21:28;101874.25;;;1.92;100.00
59337;BME280;45115;52.002;4.686;2022-12-07T04:23:55;101869.88;;;1.77;100.00
59337;BME280;45115;52.002;4.686;2022-12-07T04:26:21;101869.03;;;1.77;100.00
59337;BME280;45115;52.002;4.686;2022-12-07T04:28:48;101869.34;;;1.67;100.00
59337;BME280;45115;52.002;4.686;2022-12-07T04:31:15;101873.19;;;1.71;100.00
59337;BME280;45115;52.002;4.686;2022-12-07T04:33:43;101856.66;;;1.85;100.00
59337;BME280;45115;52.002;4.686;2022-12-07T04:36:09;101874.56;;;2.19;100.00
59337;BME280;45115;52.002;4.686;2022-12-07T04:38:36;101871.72;;;2.35;100.00
59337;BME280;45115;52.002;4.686;2022-12-07T04:41:05;101882.31;;;2.49;100.00
59337;BME280;45115;52.002;4.686;2022-12-07T04:43:32;101888.44;;;2.56;100.00
59337;BME280;45115;52.002;4.686;2022-12-07T04:45:59;101895.66;;;2.54;100.00
59337;BME280;45115;52.002;4.686;2022-12-07T04:48:26;101886.59;;;2.78;100.00
59337;BME280;45115;52.002;4.686;2022-12-07T04:50:54;101885.16;;;2.98;100.00
59337;BME280;45115;52.002;4.686;2022-12-07T04:53:21;101870.84;;;3.00;100.00
59337;BME280;45115;52.002;4.686;2022-12-07T04:55:48;101873.50;;;3.07;100.00
59337;BME280;45115;52.002;4.686;2022-12-07T04:58:14;101871.53;;;3.16;100.00
59337;BME280;45115;52.002;4.686;2022-12-07T05:00:41;101873.50;;;3.07;100.00
59337;BME280;45115;52.002;4.686;2022-12-07T05:03:08;101861.94;;;2.95;100.00
59337;BME280;45115;52.002;4.686;2022-12-07T05:05:35;101855.44;;;2.90;100.00
59337;BME280;45115;52.002;4.686;2022-12-07T05:08:03;101854.19;;;2.86;100.00
59337;BME280;45115;52.002;4.686;2022-12-07T05:10:30;101850.34;;;2.82;100.00
59337;BME280;45115;52.002;4.686;2022-12-07T05:12:57;101855.06;;;2.94;100.00
59337;BME280;45115;52.002;4.686;2022-12-07T05:15:23;101840.00;;;2.74;100.00
59337;BME280;45115;52.002;4.686;2022-12-07T05:17:50;101851.59;;;2.64;100.00
59337;BME280;45115;52.002;4.686;2022-12-07T05:20:17;101844.84;;;2.48;100.00
59337;BME280;45115;52.002;4.686;2022-12-07T05:22:44;101850.50;;;2.30;100.00
59337;BME280;45115;52.002;4.686;2022-12-07T05:25:12;101849.63;;;2.23;100.00
59337;BME280;45115;52.002;4.686;2022-12-07T05:27:39;101841.00;;;2.07;100.00
59337;BME280;45115;52.002;4.686;2022-12-07T05:30:06;101846.09;;;1.94;100.00
59337;BME280;45115;52.002;4.686;2022-12-07T05:32:33;101846.63;;;1.89;100.00
59337;BME280;45115;52.002;4.686;2022-12-07T05:35:00;101844.41;;;1.86;100.00
59337;BME280;45115;52.002;4.686;2022-12-07T05:37:26;101848.63;;;1.87;100.00
59337;BME280;45115;52.002;4.686;2022-12-07T05:39:53;101845.19;;;2.02;100.00
59337;BME280;45115;52.002;4.686;2022-12-07T05:42:21;101855.06;;;2.21;100.00
59337;BME280;45115;52.002;4.686;2022-12-07T05:44:48;101837.78;;;2.27;100.00
59337;BME280;45115;52.002;4.686;2022-12-07T05:47:15;101864.97;;;2.48;100.00
59337;BME280;45115;52.002;4.686;2022-12-07T05:49:42;101866.59;;;2.49;100.00
59337;BME280;45115;52.002;4.686;2022-12-07T05:52:09;101858.78;;;2.34;100.00
59337;BME280;45115;52.002;4.686;2022-12-07T05:54:36;101856.69;;;2.07;100.00
59337;BME280;45115;52.002;4.686;2022-12-07T05:57:02;101859.28;;;1.85;100.00
59337;BME280;45115;52.002;4.686;2022-12-07T05:59:30;101866.34;;;1.70;100.00
59337;BME280;45115;52.002;4.686;2022-12-07T06:01:58;101864.47;;;1.64;100.00
59337;BME280;45115;52.002;4.686;2022-12-07T06:04:27;101857.16;;;1.44;100.00
59337;BME280;45115;52.002;4.686;2022-12-07T06:06:54;101849.13;;;1.30;100.00
59337;BME280;45115;52.002;4.686;2022-12-07T06:09:22;101857.59;;;1.32;100.00
59337;BME280;45115;52.002;4.686;2022-12-07T06:11:49;101856.59;;;1.33;100.00
59337;BME280;45115;52.002;4.686;2022-12-07T06:14:34;101849.25;;;1.37;100.00
59337;BME280;45115;52.002;4.686;2022-12-07T06:17:01;101853.19;;;1.48;100.00
59337;BME280;45115;52.002;4.686;2022-12-07T06:19:28;101860.03;;;1.49;100.00
59337;BME280;45115;52.002;4.686;2022-12-07T06:21:56;101848.31;;;1.30;100.00
59337;BME280;45115;52.002;4.686;2022-12-07T06:24:23;101845.44;;;1.10;100.00
59337;BME280;45115;52.002;4.686;2022-12-07T06:26:50;101851.53;;;1.02;100.00
59337;BME280;45115;52.002;4.686;2022-12-07T06:29:18;101859.53;;;0.85;100.00
59337;BME280;45115;52.002;4.686;2022-12-07T06:31:46;101851.94;;;0.75;100.00
59337;BME280;45115;52.002;4.686;2022-12-07T06:34:14;101855.97;;;0.63;100.00
59337;BME280;45115;52.002;4.686;2022-12-07T06:36:41;101853.31;;;0.48;100.00
59337;BME280;45115;52.002;4.686;2022-12-07T06:39:08;101851.91;;;0.37;100.00
59337;BME280;45115;52.002;4.686;2022-12-07T06:41:36;101853.38;;;0.31;100.00
59337;BME280;45115;52.002;4.686;2022-12-07T06:44:04;101853.63;;;0.21;100.00
59337;BME280;45115;52.002;4.686;2022-12-07T06:46:32;101844.63;;;0.24;100.00
59337;BME280;45115;52.002;4.686;2022-12-07T06:49:02;101846.38;;;0.32;100.00
59337;BME280;45115;52.002;4.686;2022-12-07T06:51:28;101855.53;;;0.51;100.00
59337;BME280;45115;52.002;4.686;2022-12-07T06:53:55;101864.50;;;0.95;100.00
59337;BME280;45115;52.002;4.686;2022-12-07T06:56:22;101886.28;;;1.41;100.00
59337;BME280;45115;52.002;4.686;2022-12-07T06:58:49;101890.97;;;1.76;100.00
59337;BME280;45115;52.002;4.686;2022-12-07T07:01:17;101892.53;;;2.44;100.00
59337;BME280;45115;52.002;4.686;2022-12-07T07:03:44;101880.81;;;2.61;100.00
59337;BME280;45115;52.002;4.686;2022-12-07T07:06:14;101884.16;;;2.55;100.00
59337;BME280;45115;52.002;4.686;2022-12-07T07:08:41;101884.50;;;2.45;100.00
59337;BME280;45115;52.002;4.686;2022-12-07T07:11:08;101876.75;;;2.37;100.00
59337;BME280;45115;52.002;4.686;2022-12-07T07:13:35;101871.75;;;2.20;100.00
59337;BME280;45115;52.002;4.686;2022-12-07T07:16:02;101869.53;;;2.02;100.00
59337;BME280;45115;52.002;4.686;2022-12-07T07:18:29;101872.38;;;1.85;100.00
59337;BME280;45115;52.002;4.686;2022-12-07T07:20:56;101869.94;;;1.69;100.00
59337;BME280;45115;52.002;4.686;2022-12-07T07:23:24;101867.53;;;1.52;100.00
59337;BME280;45115;52.002;4.686;2022-12-07T07:25:51;101861.16;;;1.40;100.00
59337;BME280;45115;52.002;4.686;2022-12-07T07:28:18;101859.78;;;1.29;100.00
59337;BME280;45115;52.002;4.686;2022-12-07T07:30:45;101854.34;;;1.15;100.00
59337;BME280;45115;52.002;4.686;2022-12-07T07:33:12;101857.50;;;0.96;100.00
59337;BME280;45115;52.002;4.686;2022-12-07T07:35:39;101857.44;;;0.81;100.00
59337;BME280;45115;52.002;4.686;2022-12-07T07:38:06;101859.97;;;0.74;100.00
59337;BME280;45115;52.002;4.686;2022-12-07T07:40:35;101857.69;;;0.71;100.00
59337;BME280;45115;52.002;4.686;2022-12-07T07:43:02;101868.81;;;0.88;100.00
59337;BME280;45115;52.002;4.686;2022-12-07T07:45:29;101858.78;;;1.15;100.00
59337;BME280;45115;52.002;4.686;2022-12-07T07:47:56;101866.09;;;1.35;100.00
59337;BME280;45115;52.002;4.686;2022-12-07T07:50:22;101871.56;;;1.70;100.00
59337;BME280;45115;52.002;4.686;2022-12-07T07:52:49;101889.16;;;1.91;100.00
59337;BME280;45115;52.002;4.686;2022-12-07T07:55:16;101874.34;;;1.98;100.00
59337;BME280;45115;52.002;4.686;2022-12-07T07:57:44;101862.31;;;2.04;100.00
59337;BME280;45115;52.002;4.686;2022-12-07T08:00:13;101879.25;;;2.23;100.00
59337;BME280;45115;52.002;4.686;2022-12-07T08:02:41;101876.19;;;2.20;100.00
59337;BME280;45115;52.002;4.686;2022-12-07T08:05:09;101875.16;;;1.99;100.00
59337;BME280;45115;52.002;4.686;2022-12-07T08:07:36;101871.66;;;1.77;100.00
59337;BME280;45115;52.002;4.686;2022-12-07T08:10:04;101878.34;;;1.64;100.00
59337;BME280;45115;52.002;4.686;2022-12-07T08:12:30;101877.88;;;1.61;100.00
59337;BME280;45115;52.002;4.686;2022-12-07T08:14:58;101869.06;;;1.62;100.00
59337;BME280;45115;52.002;4.686;2022-12-07T08:17:25;101869.31;;;1.52;100.00
59337;BME280;45115;52.002;4.686;2022-12-07T08:19:52;101880.69;;;1.44;100.00
59337;BME280;45115;52.002;4.686;2022-12-07T08:22:19;101871.59;;;1.40;100.00
59337;BME280;45115;52.002;4.686;2022-12-07T08:24:45;101872.28;;;1.33;100.00
59337;BME280;45115;52.002;4.686;2022-12-07T08:27:12;101861.94;;;1.25;100.00
59337;BME280;45115;52.002;4.686;2022-12-07T08:29:38;101871.06;;;1.29;100.00
59337;BME280;45115;52.002;4.686;2022-12-07T08:32:06;101877.44;;;1.42;100.00
59337;BME280;45115;52.002;4.686;2022-12-07T08:34:33;101881.78;;;1.80;100.00
59337;BME280;45115;52.002;4.686;2022-12-07T08:37:01;101878.81;;;2.20;100.00
59337;BME280;45115;52.002;4.686;2022-12-07T08:39:27;101884.81;;;2.35;100.00
59337;BME280;45115;52.002;4.686;2022-12-07T08:41:54;101898.94;;;2.41;100.00
59337;BME280;45115;52.002;4.686;2022-12-07T08:44:21;101894.28;;;2.36;100.00
59337;BME280;45115;52.002;4.686;2022-12-07T08:46:50;101891.91;;;2.42;100.00
59337;BME280;45115;52.002;4.686;2022-12-07T08:49:22;101886.28;;;2.45;100.00
59337;BME280;45115;52.002;4.686;2022-12-07T08:51:50;101889.56;;;2.47;100.00
59337;BME280;45115;52.002;4.686;2022-12-07T08:54:18;101887.25;;;2.59;100.00
59337;BME280;45115;52.002;4.686;2022-12-07T08:56:47;101887.34;;;2.72;100.00
59337;BME280;45115;52.002;4.686;2022-12-07T08:59:15;101882.06;;;2.94;100.00
59337;BME280;45115;52.002;4.686;2022-12-07T09:01:44;101879.09;;;2.97;100.00
59337;BME280;45115;52.002;4.686;2022-12-07T09:04:10;101876.09;;;3.00;100.00
59337;BME280;45115;52.002;4.686;2022-12-07T09:06:38;101874.66;;;2.98;100.00
59337;BME280;45115;52.002;4.686;2022-12-07T09:09:05;101863.06;;;2.85;100.00
59337;BME280;45115;52.002;4.686;2022-12-07T09:11:33;101857.06;;;2.91;100.00
59337;BME280;45115;52.002;4.686;2022-12-07T09:14:00;101865.09;;;3.12;100.00
59337;BME280;45115;52.002;4.686;2022-12-07T09:16:26;101879.84;;;3.48;100.00
59337;BME280;45115;52.002;4.686;2022-12-07T09:18:53;101875.56;;;3.89;100.00
59337;BME280;45115;52.002;4.686;2022-12-07T09:21:20;101872.41;;;4.14;100.00
59337;BME280;45115;52.002;4.686;2022-12-07T09:23:48;101879.31;;;4.35;100.00
59337;BME280;45115;52.002;4.686;2022-12-07T09:26:15;101886.44;;;4.62;100.00
59337;BME280;45115;52.002;4.686;2022-12-07T09:28:42;101896.53;;;4.58;100.00
59337;BME280;45115;52.002;4.686;2022-12-07T09:31:08;101905.25;;;4.65;100.00
59337;BME280;45115;52.002;4.686;2022-12-07T09:33:35;101893.72;;;4.53;100.00
59337;BME280;45115;52.002;4.686;2022-12-07T09:36:03;101883.56;;;4.30;100.00
59337;BME280;45115;52.002;4.686;2022-12-07T09:38:30;101886.34;;;4.15;100.00
59337;BME280;45115;52.002;4.686;2022-12-07T09:41:04;101885.13;;;4.17;100.00
59337;BME280;45115;52.002;4.686;2022-12-07T09:43:31;101884.78;;;4.27;100.00
59337;BME280;45115;52.002;4.686;2022-12-07T09:45:58;101885.19;;;4.31;100.00
59337;BME280;45115;52.002;4.686;2022-12-07T09:48:30;101882.56;;;4.37;100.00
59337;BME280;45115;52.002;4.686;2022-12-07T09:50:59;101882.34;;;4.39;100.00
59337;BME280;45115;52.002;4.686;2022-12-07T09:53:28;101881.72;;;4.30;100.00
59337;BME280;45115;52.002;4.686;2022-12-07T09:55:57;101865.31;;;4.01;100.00
59337;BME280;45115;52.002;4.686;2022-12-07T09:58:26;101875.38;;;3.91;100.00
59337;BME280;45115;52.002;4.686;2022-12-07T10:00:57;101867.84;;;3.74;100.00
59337;BME280;45115;52.002;4.686;2022-12-07T10:03:25;101869.59;;;3.67;100.00
59337;BME280;45115;52.002;4.686;2022-12-07T10:05:54;101871.00;;;4.25;100.00
59337;BME280;45115;52.002;4.686;2022-12-07T10:08:22;101864.59;;;4.75;100.00
59337;BME280;45115;52.002;4.686;2022-12-07T10:10:51;101868.63;;;5.11;100.00
59337;BME280;45115;52.002;4.686;2022-12-07T10:13:20;101873.13;;;5.63;100.00
59337;BME280;45115;52.002;4.686;2022-12-07T10:15:51;101865.13;;;6.29;100.00
59337;BME280;45115;52.002;4.686;2022-12-07T10:18:28;101856.81;;;6.58;100.00
59337;BME280;45115;52.002;4.686;2022-12-07T10:21:10;101856.81;;;6.58;100.00
59337;BME280;45115;52.002;4.686;2022-12-07T10:23:40;101841.03;;;6.25;100.00
59337;BME280;45115;52.002;4.686;2022-12-07T10:26:26;101854.38;;;5.92;100.00
59337;BME280;45115;52.002;4.686;2022-12-07T10:28:54;101825.84;;;5.36;100.00
59337;BME280;45115;52.002;4.686;2022-12-07T10:31:23;101835.03;;;5.07;100.00
59337;BME280;45115;52.002;4.686;2022-12-07T10:33:51;101823.97;;;4.77;100.00
59337;BME280;45115;52.002;4.686;2022-12-07T10:36:22;101838.50;;;4.60;100.00
59337;BME280;45115;52.002;4.686;2022-12-07T10:38:52;101847.22;;;4.40;100.00
59337;BME280;45115;52.002;4.686;2022-12-07T10:41:19;101839.94;;;4.69;100.00
59337;BME280;45115;52.002;4.686;2022-12-07T10:43:51;101834.44;;;5.04;100.00
59337;BME280;45115;52.002;4.686;2022-12-07T10:46:43;101839.25;;;5.74;100.00
59337;BME280;45115;52.002;4.686;2022-12-07T10:49:28;101836.25;;;6.41;100.00
59337;BME280;45115;52.002;4.686;2022-12-07T10:52:08;101824.75;;;6.61;100.00
59337;BME280;45115;52.002;4.686;2022-12-07T10:54:44;101817.41;;;6.44;100.00
59337;BME280;45115;52.002;4.686;2022-12-07T10:57:34;101820.13;;;6.31;100.00
59337;BME280;45115;52.002;4.686;2022-12-07T11:00:10;101816.22;;;6.08;100.00
59337;BME280;45115;52.002;4.686;2022-12-07T11:02:53;101811.25;;;5.86;100.00
59337;BME280;45115;52.002;4.686;2022-12-07T11:05:27;101812.19;;;5.59;100.00
59337;BME280;45115;52.002;4.686;2022-12-07T11:08:04;101809.25;;;5.36;100.00
59337;BME280;45115;52.002;4.686;2022-12-07T11:10:42;101804.47;;;5.19;100.00
59337;BME280;45115;52.002;4.686;2022-12-07T11:13:28;101802.34;;;5.35;100.00
59337;BME280;45115;52.002;4.686;2022-12-07T11:16:06;101800.78;;;5.72;100.00
59337;BME280;45115;52.002;4.686;2022-12-07T11:18:44;101796.59;;;5.97;100.00
59337;BME280;45115;52.002;4.686;2022-12-07T11:21:19;101799.72;;;6.19;100.00
59337;BME280;45115;52.002;4.686;2022-12-07T11:23:52;101791.66;;;6.40;100.00
59337;BME280;45115;52.002;4.686;2022-12-07T11:26:36;101779.41;;;6.52;100.00
59337;BME280;45115;52.002;4.686;2022-12-07T11:29:17;101765.97;;;6.79;100.00
59337;BME280;45115;52.002;4.686;2022-12-07T11:31:57;101778.91;;;7.37;100.00
59337;BME280;45115;52.002;4.686;2022-12-07T11:34:36;101767.13;;;7.70;100.00
59337;BME280;45115;52.002;4.686;2022-12-07T11:37:09;101758.53;;;7.75;100.00
59337;BME280;45115;52.002;4.686;2022-12-07T11:39:41;101755.31;;;7.84;100.00
59337;BME280;45115;52.002;4.686;2022-12-07T11:42:14;101756.53;;;7.58;100.00
59337;BME280;45115;52.002;4.686;2022-12-07T11:44:50;101759.19;;;7.39;100.00
59337;BME280;45115;52.002;4.686;2022-12-07T11:47:25;101749.63;;;6.89;100.00
59337;BME280;45115;52.002;4.686;2022-12-07T11:49:57;101726.28;;;6.30;100.00
59337;BME280;45115;52.002;4.686;2022-12-07T11:52:32;101741.38;;;6.16;100.00
59337;BME280;45115;52.002;4.686;2022-12-07T11:55:05;101739.66;;;6.03;100.00
59337;BME280;45115;52.002;4.686;2022-12-07T11:57:44;101733.53;;;6.02;100.00
59337;BME280;45115;52.002;4.686;2022-12-07T12:00:15;101731.78;;;5.96;100.00
59337;BME280;45115;52.002;4.686;2022-12-07T12:02:46;101733.78;;;6.01;100.00
59337;BME280;45115;52.002;4.686;2022-12-07T12:05:18;101737.84;;;6.03;100.00
59337;BME280;45115;52.002;4.686;2022-12-07T12:07:48;101739.06;;;6.01;100.00
59337;BME280;45115;52.002;4.686;2022-12-07T12:10:21;101742.41;;;5.82;100.00
59337;BME280;45115;52.002;4.686;2022-12-07T12:13:27;101741.72;;;5.62;100.00
59337;BME280;45115;52.002;4.686;2022-12-07T12:16:08;101744.22;;;5.50;100.00
59337;BME280;45115;52.002;4.686;2022-12-07T12:19:04;101745.00;;;5.50;100.00
59337;BME280;45115;52.002;4.686;2022-12-07T12:21:39;101740.75;;;5.49;100.00
59337;BME280;45115;52.002;4.686;2022-12-07T12:24:12;101743.00;;;5.52;100.00
59337;BME280;45115;52.002;4.686;2022-12-07T12:26:49;101742.00;;;5.47;100.00
59337;BME280;45115;52.002;4.686;2022-12-07T12:29:23;101733.91;;;5.41;100.00
59337;BME280;45115;52.002;4.686;2022-12-07T12:32:07;101728.25;;;5.44;100.00
59337;BME280;45115;52.002;4.686;2022-12-07T12:34:40;101726.88;;;5.35;100.00
59337;BME280;45115;52.002;4.686;2022-12-07T12:37:45;101724.41;;;5.40;100.00
59337;BME280;45115;52.002;4.686;2022-12-07T12:46:47;101701.44;;;5.22;100.00
59337;BME280;45115;52.002;4.686;2022-12-07T12:49:37;101701.59;;;5.27;100.00
59337;BME280;45115;52.002;4.686;2022-12-07T12:56:00;101696.53;;;5.26;100.00
59337;BME280;45115;52.002;4.686;2022-12-07T12:58:39;101687.44;;;5.28;100.00
59337;BME280;45115;52.002;4.686;2022-12-07T13:01:36;101686.38;;;5.36;100.00
59337;BME280;45115;52.002;4.686;2022-12-07T13:04:17;101674.34;;;5.54;100.00
59337;BME280;45115;52.002;4.686;2022-12-07T13:06:47;101685.41;;;5.63;100.00
59337;BME280;45115;52.002;4.686;2022-12-07T13:09:20;101685.44;;;5.88;100.00
59337;BME280;45115;52.002;4.686;2022-12-07T13:11:56;101689.56;;;6.09;100.00
59337;BME280;45115;52.002;4.686;2022-12-07T13:14:55;101677.38;;;6.34;100.00
59337;BME280;45115;52.002;4.686;2022-12-07T13:17:55;101686.84;;;6.42;100.00